createdAt,value
2019-01-29T00:00:54.045Z,2.51
2019-01-29T00:03:23.475Z,2.48
2019-01-29T00:05:52.906Z,2.43
2019-01-29T00:08:22.700Z,2.45
2019-01-29T00:10:52.137Z,2.46
2019-01-29T00:13:21.559Z,2.30
2019-01-29T00:15:50.995Z,2.31
2019-01-29T00:18:20.421Z,2.27
2019-01-29T00:20:49.870Z,2.30
2019-01-29T00:23:19.292Z,2.26
2019-01-29T00:25:48.722Z,2.30
2019-01-29T00:28:18.164Z,2.30
2019-01-29T00:30:47.591Z,2.30
2019-01-29T00:33:17.418Z,2.23
2019-01-29T00:35:46.840Z,2.28
2019-01-29T00:38:16.275Z,2.28
2019-01-29T00:40:45.767Z,2.22
2019-01-29T00:43:15.208Z,2.10
2019-01-29T00:45:44.635Z,2.16
2019-01-29T00:48:14.066Z,2.09
2019-01-29T00:50:43.496Z,2.06
2019-01-29T00:53:12.931Z,2.03
2019-01-29T00:55:42.367Z,2.06
2019-01-29T00:58:11.797Z,2.12
2019-01-29T01:00:41.225Z,2.13
2019-01-29T01:03:10.658Z,2.23
2019-01-29T01:05:40.149Z,2.21
2019-01-29T01:08:09.590Z,2.07
2019-01-29T01:10:39.013Z,2.08
2019-01-29T01:13:08.445Z,2.11
2019-01-29T01:15:37.867Z,2.11
2019-01-29T01:18:07.309Z,2.04
2019-01-29T01:20:36.742Z,2.12
2019-01-29T01:23:06.183Z,2.11
2019-01-29T01:25:35.610Z,2.03
2019-01-29T01:28:05.118Z,1.94
2019-01-29T01:30:34.539Z,1.92
2019-01-29T01:33:03.974Z,1.93
2019-01-29T01:35:33.397Z,1.90
2019-01-29T01:38:02.830Z,1.95
2019-01-29T01:40:32.259Z,1.93
2019-01-29T01:43:01.697Z,2.01
2019-01-29T01:45:31.121Z,2.01
2019-01-29T01:48:00.556Z,1.92
2019-01-29T01:50:29.987Z,1.91
2019-01-29T01:52:59.693Z,1.98
2019-01-29T01:55:29.128Z,1.92
2019-01-29T01:57:58.552Z,1.90
2019-01-29T02:00:28.049Z,2.00
2019-01-29T02:02:57.492Z,1.90
2019-01-29T02:05:26.918Z,1.99
2019-01-29T02:07:56.354Z,1.95
2019-01-29T02:10:29.091Z,2.03
2019-01-29T02:12:58.535Z,2.21
2019-01-29T02:15:28.030Z,2.18
2019-01-29T02:17:57.470Z,2.05
2019-01-29T02:20:26.897Z,1.99
2019-01-29T02:22:56.331Z,1.99
2019-01-29T02:25:25.765Z,2.00
2019-01-29T02:27:55.270Z,2.04
2019-01-29T02:30:25.470Z,2.01
2019-01-29T02:32:54.909Z,1.96
2019-01-29T02:35:24.333Z,2.01
2019-01-29T02:37:53.838Z,1.97
2019-01-29T02:40:26.741Z,2.03
2019-01-29T02:42:56.174Z,1.93
2019-01-29T02:45:26.538Z,1.96
2019-01-29T02:47:55.979Z,2.01
2019-01-29T02:50:25.477Z,2.03
2019-01-29T02:52:54.920Z,2.03
2019-01-29T02:55:24.413Z,1.90
2019-01-29T02:57:53.863Z,1.93
2019-01-29T03:00:26.760Z,1.89
2019-01-29T03:02:56.358Z,1.90
2019-01-29T03:05:25.934Z,1.86
2019-01-29T03:07:55.370Z,1.87
2019-01-29T03:10:27.601Z,1.86
2019-01-29T03:12:57.038Z,1.98
2019-01-29T03:15:32.106Z,1.93
2019-01-29T03:18:02.285Z,1.89
2019-01-29T03:20:31.713Z,1.82
2019-01-29T03:23:01.151Z,1.84
2019-01-29T03:25:30.579Z,1.80
2019-01-29T03:28:00.021Z,1.83
2019-01-29T03:30:29.469Z,1.83
2019-01-29T03:32:58.879Z,1.89
2019-01-29T03:35:28.370Z,1.85
2019-01-29T03:37:57.809Z,1.86
2019-01-29T03:40:28.371Z,1.85
2019-01-29T03:42:57.878Z,1.85
2019-01-29T03:45:27.377Z,1.89
2019-01-29T03:47:56.802Z,1.96
2019-01-29T03:50:26.499Z,2.04
2019-01-29T03:52:55.929Z,1.98
2019-01-29T03:55:25.849Z,1.99
2019-01-29T03:57:55.281Z,2.05
2019-01-29T04:00:27.716Z,2.07
2019-01-29T04:02:57.210Z,2.13
2019-01-29T04:05:26.650Z,2.12
2019-01-29T04:07:56.075Z,2.09
2019-01-29T04:10:25.512Z,2.08
2019-01-29T04:12:54.940Z,2.04
2019-01-29T04:15:25.187Z,1.94
2019-01-29T04:17:57.523Z,2.00
2019-01-29T04:20:27.800Z,2.00
2019-01-29T04:22:57.224Z,1.94
2019-01-29T04:25:26.661Z,1.95
2019-01-29T04:27:56.095Z,1.92
2019-01-29T04:30:25.527Z,1.99
2019-01-29T04:32:54.950Z,1.94
2019-01-29T04:35:24.457Z,1.88
2019-01-29T04:37:53.885Z,1.90
2019-01-29T04:40:23.324Z,1.90
2019-01-29T04:42:52.823Z,1.90
2019-01-29T04:45:22.255Z,1.88
2019-01-29T04:47:51.671Z,1.83
2019-01-29T04:50:22.048Z,1.84
2019-01-29T04:52:51.483Z,1.76
2019-01-29T04:55:21.666Z,1.78
2019-01-29T04:57:51.085Z,1.82
2019-01-29T05:00:24.497Z,1.78
2019-01-29T05:02:53.921Z,1.75
2019-01-29T05:05:23.497Z,1.78
2019-01-29T05:07:52.927Z,1.78
2019-01-29T05:10:23.101Z,1.85
2019-01-29T05:12:52.594Z,1.77
2019-01-29T05:15:22.546Z,1.72
2019-01-29T05:17:51.970Z,1.80
2019-01-29T05:20:22.745Z,1.89
2019-01-29T05:22:52.310Z,1.85
2019-01-29T05:25:22.218Z,1.81
2019-01-29T05:27:51.650Z,1.81
2019-01-29T05:30:25.441Z,1.86
2019-01-29T05:32:54.865Z,1.85
2019-01-29T05:35:24.308Z,1.83
2019-01-29T05:37:53.739Z,1.91
2019-01-29T05:40:25.482Z,1.84
2019-01-29T05:42:54.978Z,1.85
2019-01-29T05:45:25.449Z,1.93
2019-01-29T05:47:54.881Z,1.87
2019-01-29T05:50:24.319Z,1.94
2019-01-29T05:52:53.740Z,1.83
2019-01-29T05:55:23.189Z,1.86
2019-01-29T05:57:52.618Z,1.88
2019-01-29T06:00:28.535Z,1.80
2019-01-29T06:02:58.044Z,1.72
2019-01-29T06:05:27.611Z,1.80
2019-01-29T06:07:57.048Z,1.84
2019-01-29T06:10:26.489Z,1.79
2019-01-29T06:12:55.907Z,1.71
2019-01-29T06:15:26.379Z,1.75
2019-01-29T06:17:55.804Z,1.64
2019-01-29T06:20:30.975Z,1.75
2019-01-29T06:23:00.401Z,1.69
2019-01-29T06:25:29.919Z,1.75
2019-01-29T06:27:59.333Z,1.75
2019-01-29T06:30:28.834Z,1.64
2019-01-29T06:32:58.259Z,1.71
2019-01-29T06:35:27.767Z,1.70
2019-01-29T06:37:57.190Z,1.66
2019-01-29T06:40:29.742Z,1.69
2019-01-29T06:42:59.172Z,1.73
2019-01-29T06:45:28.604Z,1.81
2019-01-29T06:47:58.028Z,1.80
2019-01-29T06:50:28.252Z,1.87
2019-01-29T06:52:57.745Z,2.02
2019-01-29T06:55:27.759Z,2.04
2019-01-29T06:57:57.179Z,1.97
2019-01-29T07:00:29.782Z,1.88
2019-01-29T07:03:01.127Z,1.87
2019-01-29T07:05:30.886Z,1.88
2019-01-29T07:08:00.337Z,1.76
2019-01-29T07:10:29.884Z,1.91
2019-01-29T07:12:59.320Z,2.05
2019-01-29T07:15:47.677Z,2.02
2019-01-29T07:18:18.765Z,2.05
2019-01-29T07:20:48.201Z,2.12
2019-01-29T07:23:17.630Z,2.05
2019-01-29T07:25:47.077Z,2.08
2019-01-29T07:28:16.501Z,2.15
2019-01-29T07:30:45.923Z,2.19
2019-01-29T07:33:15.371Z,2.21
2019-01-29T07:35:44.793Z,2.11
2019-01-29T07:38:14.221Z,2.16
2019-01-29T07:40:43.651Z,2.32
2019-01-29T07:43:13.090Z,2.33
2019-01-29T07:45:42.529Z,2.27
2019-01-29T07:48:12.035Z,2.21
2019-01-29T07:50:41.484Z,2.28
2019-01-29T07:53:11.097Z,2.32
2019-01-29T07:55:40.520Z,2.28
2019-01-29T07:58:10.019Z,2.15
2019-01-29T08:00:39.514Z,2.26
2019-01-29T08:03:09.064Z,2.32
2019-01-29T08:05:38.517Z,2.38
2019-01-29T08:08:08.021Z,2.48
2019-01-29T08:10:37.462Z,2.41
2019-01-29T08:13:07.060Z,2.27
2019-01-29T08:15:36.566Z,2.28
2019-01-29T08:18:06.706Z,2.33
2019-01-29T08:20:36.145Z,2.34
2019-01-29T08:23:05.892Z,2.39
2019-01-29T08:25:35.299Z,2.46
2019-01-29T08:28:05.235Z,2.46
2019-01-29T08:30:34.717Z,2.40
2019-01-29T08:33:04.197Z,2.37
2019-01-29T08:35:33.665Z,2.52
2019-01-29T08:38:03.096Z,2.48
2019-01-29T08:40:32.517Z,2.55
2019-01-29T08:43:01.953Z,2.46
2019-01-29T08:45:31.378Z,2.36
2019-01-29T08:48:00.882Z,2.36
2019-01-29T08:50:30.306Z,2.47
2019-01-29T08:52:59.750Z,2.45
2019-01-29T08:55:29.171Z,2.49
2019-01-29T08:57:58.609Z,2.53
2019-01-29T09:00:28.038Z,2.51
2019-01-29T09:02:57.471Z,2.51
2019-01-29T09:05:26.899Z,2.54
2019-01-29T09:07:56.340Z,2.62
2019-01-29T09:10:25.758Z,2.53
2019-01-29T09:12:55.203Z,2.62
2019-01-29T09:15:24.842Z,2.58
2019-01-29T09:17:54.411Z,2.64
2019-01-29T09:20:24.471Z,2.60
2019-01-29T09:22:53.981Z,2.61
2019-01-29T09:25:23.784Z,2.54
2019-01-29T09:27:53.284Z,2.57
2019-01-29T09:30:23.675Z,2.52
2019-01-29T09:32:53.114Z,2.44
2019-01-29T09:35:22.534Z,2.43
2019-01-29T09:37:51.976Z,2.50
2019-01-29T09:40:23.320Z,2.56
2019-01-29T09:42:52.906Z,2.62
2019-01-29T09:45:22.839Z,2.64
2019-01-29T09:47:52.356Z,2.54
2019-01-29T09:50:26.389Z,2.51
2019-01-29T09:52:55.821Z,2.58
2019-01-29T09:55:29.531Z,2.73
2019-01-29T09:57:57.242Z,2.77
2019-01-29T10:00:36.267Z,2.84
2019-01-29T10:03:06.707Z,2.84
2019-01-29T10:05:36.134Z,2.85
2019-01-29T10:08:06.305Z,2.85
2019-01-29T10:10:35.738Z,2.88
2019-01-29T10:13:05.974Z,2.89
2019-01-29T10:15:38.011Z,2.94
2019-01-29T10:18:07.438Z,2.98
2019-01-29T10:20:37.211Z,3.02
2019-01-29T10:23:06.637Z,3.14
2019-01-29T10:25:38.226Z,3.20
2019-01-29T10:28:07.724Z,3.21
2019-01-29T10:30:37.230Z,3.23
2019-01-29T10:33:06.647Z,3.22
2019-01-29T10:35:36.091Z,3.15
2019-01-29T10:38:05.663Z,3.05
2019-01-29T10:40:35.101Z,3.16
2019-01-29T10:43:05.315Z,3.17
2019-01-29T10:45:34.706Z,3.30
2019-01-29T10:48:04.131Z,3.25
2019-01-29T10:50:33.703Z,3.40
2019-01-29T10:53:03.135Z,3.48
2019-01-29T10:55:32.574Z,3.50
2019-01-29T10:58:02.001Z,3.56
2019-01-29T11:00:39.124Z,3.60
2019-01-29T11:03:09.855Z,3.60
2019-01-29T11:05:39.591Z,3.68
2019-01-29T11:08:09.088Z,3.73
2019-01-29T11:10:38.524Z,3.71
2019-01-29T11:13:08.022Z,3.55
2019-01-29T11:15:40.669Z,3.68
2019-01-29T11:18:14.836Z,3.61
2019-01-29T11:20:44.276Z,3.70
2019-01-29T11:23:13.707Z,3.66
2019-01-29T11:25:43.377Z,3.56
2019-01-29T11:28:12.871Z,3.52
2019-01-29T11:30:42.547Z,3.63
2019-01-29T11:33:12.040Z,3.55
2019-01-29T11:35:41.479Z,3.62
2019-01-29T11:38:10.976Z,3.55
2019-01-29T11:40:40.478Z,3.65
2019-01-29T11:43:10.178Z,3.69
2019-01-29T11:45:49.698Z,3.70
2019-01-29T11:48:19.118Z,3.66
2019-01-29T11:50:48.557Z,3.71
2019-01-29T11:53:17.978Z,3.73
2019-01-29T11:55:47.417Z,3.68
2019-01-29T11:58:16.844Z,3.75
2019-01-29T12:00:50.700Z,3.81
2019-01-29T12:03:20.134Z,3.82
2019-01-29T12:05:49.640Z,3.86
2019-01-29T12:08:19.207Z,3.83
2019-01-29T12:10:48.916Z,3.93
2019-01-29T12:13:18.348Z,3.75
2019-01-29T12:15:48.057Z,3.83
2019-01-29T12:18:17.486Z,3.86
2019-01-29T12:20:46.919Z,3.87
2019-01-29T12:23:16.346Z,3.92
2019-01-29T12:25:45.793Z,3.97
2019-01-29T12:28:15.218Z,3.99
2019-01-29T12:30:44.656Z,3.98
2019-01-29T12:33:14.703Z,4.05
2019-01-29T12:35:44.123Z,4.07
2019-01-29T12:38:13.612Z,3.97
2019-01-29T12:40:43.013Z,4.04
2019-01-29T12:43:14.348Z,4.11
2019-01-29T12:45:43.768Z,4.12
2019-01-29T12:48:13.204Z,4.12
2019-01-29T12:50:44.270Z,4.09
2019-01-29T12:53:15.410Z,4.19
2019-01-29T12:55:44.838Z,4.31
2019-01-29T12:58:14.274Z,4.34
2019-01-29T13:00:48.403Z,4.38
2019-01-29T13:03:19.186Z,4.29
2019-01-29T13:05:48.644Z,4.26
2019-01-29T13:08:18.316Z,4.25
2019-01-29T13:10:47.748Z,4.34
2019-01-29T13:13:17.251Z,4.30
2019-01-29T13:15:46.743Z,4.25
2019-01-29T13:18:16.179Z,4.24
2019-01-29T13:20:45.614Z,4.27
2019-01-29T13:23:15.045Z,4.36
2019-01-29T13:25:44.471Z,4.32
2019-01-29T13:28:13.979Z,4.41
2019-01-29T13:30:43.404Z,4.37
2019-01-29T13:33:15.387Z,4.44
2019-01-29T13:35:45.154Z,4.53
2019-01-29T13:38:14.863Z,4.62
2019-01-29T13:40:44.361Z,4.59
2019-01-29T13:43:13.806Z,4.55
2019-01-29T13:45:43.358Z,4.60
2019-01-29T13:48:13.664Z,4.64
2019-01-29T13:50:49.904Z,4.68
2019-01-29T13:53:19.347Z,4.87
2019-01-29T13:55:48.779Z,4.93
2019-01-29T13:58:18.218Z,4.91
2019-01-29T14:00:47.649Z,5.11
2019-01-29T14:03:18.626Z,5.13
2019-01-29T14:05:48.625Z,5.13
2019-01-29T14:08:18.100Z,5.15
2019-01-29T14:10:47.529Z,5.02
2019-01-29T14:13:16.969Z,4.95
2019-01-29T14:15:50.508Z,5.07
2019-01-29T14:18:20.181Z,5.17
2019-01-29T14:20:49.605Z,5.17
2019-01-29T14:23:19.035Z,5.09
2019-01-29T14:25:48.460Z,5.10
2019-01-29T14:28:17.907Z,5.10
2019-01-29T14:30:47.406Z,5.10
2019-01-29T14:33:16.995Z,5.01
2019-01-29T14:35:46.429Z,5.00
2019-01-29T14:38:23.447Z,5.01
2019-01-29T14:40:52.884Z,4.83
2019-01-29T14:43:30.207Z,4.91
2019-01-29T14:45:59.630Z,4.90
2019-01-29T14:48:29.069Z,4.96
2019-01-29T14:50:58.499Z,4.96
2019-01-29T14:53:28.011Z,4.86
2019-01-29T14:55:57.435Z,4.84
2019-01-29T14:58:26.878Z,4.89
2019-01-29T15:00:56.368Z,4.79
2019-01-29T15:03:25.806Z,4.84
2019-01-29T15:05:55.232Z,4.74
2019-01-29T15:08:24.664Z,4.72
2019-01-29T15:10:54.091Z,4.65
2019-01-29T15:13:23.522Z,4.71
2019-01-29T15:15:54.590Z,4.71
2019-01-29T15:18:31.520Z,4.66
2019-01-29T15:21:00.953Z,4.71
2019-01-29T15:23:30.758Z,4.64
2019-01-29T15:26:00.190Z,4.73
2019-01-29T15:28:29.618Z,4.76
2019-01-29T15:30:59.050Z,4.84
2019-01-29T15:33:28.487Z,4.88
2019-01-29T15:35:57.915Z,4.93
2019-01-29T15:38:27.338Z,4.91
2019-01-29T15:40:56.846Z,4.89
2019-01-29T15:43:26.286Z,4.94
2019-01-29T15:45:55.712Z,4.81
2019-01-29T15:48:25.145Z,4.76
2019-01-29T15:50:54.590Z,4.68
2019-01-29T15:53:24.017Z,4.55
2019-01-29T15:55:53.459Z,4.44
2019-01-29T15:58:22.887Z,4.44
2019-01-29T16:00:52.323Z,4.44
2019-01-29T16:03:21.824Z,4.32
2019-01-29T16:05:51.303Z,4.36
2019-01-29T16:08:20.697Z,4.30
2019-01-29T16:10:50.129Z,4.28
2019-01-29T16:13:19.560Z,4.21
2019-01-29T16:15:49.014Z,4.14
2019-01-29T16:18:18.432Z,4.06
2019-01-29T16:20:47.873Z,3.98
2019-01-29T16:23:17.297Z,3.91
2019-01-29T16:25:46.731Z,3.78
2019-01-29T16:28:16.161Z,3.76
2019-01-29T16:30:45.604Z,3.69
2019-01-29T16:33:15.035Z,3.66
2019-01-29T16:35:45.013Z,3.61
2019-01-29T16:38:14.771Z,3.58
2019-01-29T16:40:46.365Z,3.54
2019-01-29T16:43:15.791Z,3.47
2019-01-29T16:45:45.302Z,3.38
2019-01-29T16:48:14.802Z,3.30
2019-01-29T16:50:44.237Z,3.27
2019-01-29T16:53:13.659Z,3.19
2019-01-29T16:55:43.094Z,3.14
2019-01-29T16:58:12.533Z,3.03
2019-01-29T17:00:43.873Z,2.98
2019-01-29T17:03:14.166Z,2.94
2019-01-29T17:05:43.747Z,2.90
2019-01-29T17:08:13.172Z,2.88
2019-01-29T17:10:43.274Z,2.83
2019-01-29T17:13:12.696Z,2.77
2019-01-29T17:15:42.133Z,2.77
2019-01-29T17:18:13.401Z,2.75
2019-01-29T17:20:45.059Z,2.71
2019-01-29T17:23:14.629Z,2.71
2019-01-29T17:25:44.066Z,2.71
2019-01-29T17:28:13.492Z,2.61
2019-01-29T17:30:45.254Z,2.60
2019-01-29T17:33:19.067Z,2.58
2019-01-29T17:35:48.909Z,2.58
2019-01-29T17:38:18.300Z,2.55
2019-01-29T17:40:47.907Z,2.50
2019-01-29T17:43:17.338Z,2.44
2019-01-29T17:45:50.680Z,2.40
2019-01-29T17:48:20.103Z,2.35
2019-01-29T17:50:49.532Z,2.27
2019-01-29T17:53:18.956Z,2.31
2019-01-29T17:55:48.534Z,2.25
2019-01-29T17:58:18.032Z,2.20
2019-01-29T18:00:49.103Z,2.18
2019-01-29T18:03:18.602Z,2.17
2019-01-29T18:05:48.033Z,2.08
2019-01-29T18:08:17.456Z,2.03
2019-01-29T18:10:46.894Z,2.03
2019-01-29T18:13:16.331Z,1.97
2019-01-29T18:15:45.747Z,1.95
2019-01-29T18:18:15.553Z,1.95
2019-01-29T18:20:45.048Z,1.96
2019-01-29T18:23:14.480Z,1.94
2019-01-29T18:25:43.910Z,1.87
2019-01-29T18:28:13.350Z,1.82
2019-01-29T18:30:42.853Z,1.81
2019-01-29T18:33:12.284Z,1.81
2019-01-29T18:35:41.710Z,1.77
2019-01-29T18:38:11.146Z,1.80
2019-01-29T18:40:45.544Z,1.83
2019-01-29T18:43:14.988Z,1.78
2019-01-29T18:45:44.408Z,1.77
2019-01-29T18:48:13.840Z,1.71
2019-01-29T18:50:43.271Z,1.69
2019-01-29T18:53:12.708Z,1.65
2019-01-29T18:55:42.134Z,1.59
2019-01-29T18:58:12.716Z,1.60
2019-01-29T19:00:42.728Z,1.58
2019-01-29T19:03:12.164Z,1.62
2019-01-29T19:05:41.595Z,1.55
2019-01-29T19:08:11.028Z,1.51
2019-01-29T19:10:40.623Z,1.54
2019-01-29T19:13:10.059Z,1.46
2019-01-29T19:15:39.481Z,1.47
2019-01-29T19:18:09.019Z,1.41
2019-01-29T19:20:38.419Z,1.39
2019-01-29T19:23:07.855Z,1.37
2019-01-29T19:25:37.280Z,1.39
2019-01-29T19:28:06.983Z,1.36
2019-01-29T19:30:36.562Z,1.29
2019-01-29T19:33:06.123Z,1.25
2019-01-29T19:35:38.517Z,1.19
2019-01-29T19:38:07.950Z,1.15
2019-01-29T19:40:40.355Z,1.11
2019-01-29T19:43:08.874Z,1.06
2019-01-29T19:45:38.296Z,1.00
2019-01-29T19:48:07.903Z,1.00
2019-01-29T19:50:37.330Z,0.95
2019-01-29T19:53:06.761Z,0.88
2019-01-29T19:55:36.191Z,0.92
2019-01-29T19:58:09.259Z,0.89
2019-01-29T20:00:40.694Z,0.83
2019-01-29T20:03:10.197Z,0.82
2019-01-29T20:05:39.692Z,0.91
2019-01-29T20:08:09.127Z,0.94
2019-01-29T20:10:39.453Z,0.89
2019-01-29T20:13:08.903Z,0.89
2019-01-29T20:15:38.318Z,0.82
2019-01-29T20:18:07.761Z,0.84
2019-01-29T20:20:41.991Z,0.78
2019-01-29T20:23:11.434Z,0.77
2019-01-29T20:25:40.847Z,0.73
2019-01-29T20:28:10.363Z,0.71
2019-01-29T20:30:40.722Z,0.74
2019-01-29T20:33:10.229Z,0.72
2019-01-29T20:35:39.665Z,0.67
2019-01-29T20:38:09.151Z,0.69
2019-01-29T20:40:38.587Z,0.64
2019-01-29T20:43:08.017Z,0.63
2019-01-29T20:45:37.441Z,0.65
2019-01-29T20:48:06.934Z,0.68
2019-01-29T20:50:37.710Z,0.66
2019-01-29T20:53:07.204Z,0.71
2019-01-29T20:55:36.635Z,0.73
2019-01-29T20:58:06.603Z,0.77
2019-01-29T21:00:41.923Z,0.69
2019-01-29T21:03:11.349Z,0.75
2019-01-29T21:05:40.785Z,0.75
2019-01-29T21:08:10.284Z,0.80
2019-01-29T21:10:39.715Z,0.79
2019-01-29T21:13:10.934Z,0.84
2019-01-29T21:15:40.456Z,0.81
2019-01-29T21:18:09.880Z,0.76
2019-01-29T21:20:39.316Z,0.84
2019-01-29T21:23:08.757Z,0.86
2019-01-29T21:25:38.182Z,0.82
2019-01-29T21:28:07.675Z,0.82
2019-01-29T21:30:40.586Z,0.79
2019-01-29T21:33:10.181Z,0.78
2019-01-29T21:35:39.619Z,0.73
2019-01-29T21:38:09.115Z,0.73
2019-01-29T21:40:38.629Z,0.74
2019-01-29T21:43:08.053Z,0.73
2019-01-29T21:45:37.559Z,0.77
2019-01-29T21:48:07.438Z,0.69
2019-01-29T21:50:37.138Z,0.68
2019-01-29T21:53:06.567Z,0.68
2019-01-29T21:55:36.006Z,0.69
2019-01-29T21:58:06.235Z,0.72
2019-01-29T22:00:39.183Z,0.70
2019-01-29T22:03:09.055Z,0.76
2019-01-29T22:05:38.558Z,0.72
2019-01-29T22:08:08.628Z,0.72
2019-01-29T22:10:38.140Z,0.75
2019-01-29T22:13:08.747Z,0.73
2019-01-29T22:15:38.181Z,0.69
2019-01-29T22:18:08.146Z,0.73
2019-01-29T22:20:37.579Z,0.63
2019-01-29T22:23:07.004Z,0.62
2019-01-29T22:25:36.449Z,0.63
2019-01-29T22:28:07.223Z,0.56
2019-01-29T22:30:39.977Z,0.62
2019-01-29T22:33:09.402Z,0.66
2019-01-29T22:35:38.846Z,0.64
2019-01-29T22:38:08.429Z,0.58
2019-01-29T22:40:37.919Z,0.65
2019-01-29T22:43:07.343Z,0.54
2019-01-29T22:45:36.786Z,0.57
2019-01-29T22:48:06.947Z,0.56
2019-01-29T22:50:39.597Z,0.53
2019-01-29T22:53:09.229Z,0.54
2019-01-29T22:55:38.671Z,0.58
2019-01-29T22:58:08.159Z,0.51
2019-01-29T23:00:56.109Z,0.44
2019-01-29T23:03:39.707Z,0.48
2019-01-29T23:06:32.397Z,0.43
2019-01-29T23:09:01.824Z,0.26
2019-01-29T23:11:31.264Z,0.27
2019-01-29T23:14:00.700Z,0.29
2019-01-29T23:16:30.129Z,0.27
2019-01-29T23:18:59.553Z,0.21
2019-01-29T23:21:28.989Z,0.31
2019-01-29T23:23:58.423Z,0.29
2019-01-29T23:26:27.853Z,0.29
2019-01-29T23:28:57.277Z,0.28
2019-01-29T23:31:26.721Z,0.31
2019-01-29T23:33:56.139Z,0.35
2019-01-29T23:36:25.577Z,0.36
2019-01-29T23:38:55.006Z,0.38
2019-01-29T23:41:24.513Z,0.35
2019-01-29T23:43:53.927Z,0.35
2019-01-29T23:46:23.434Z,0.39
2019-01-29T23:48:52.863Z,0.44
2019-01-29T23:51:22.302Z,0.44
2019-01-29T23:53:51.729Z,0.48
2019-01-29T23:56:21.172Z,0.49
2019-01-29T23:58:50.598Z,0.51
